Time;durP1;ratioP1;P1;durP2;ratioP2;P2;SDS_P1;SDS_P2;PMS_P1;PMS_P2;Temp;Humidity;BMP_temperature;BMP_pressure;BME280_temperature;BME280_humidity;BME280_pressure;Samples;Min_cycle;Max_cycle;Signal;HPM_P1;HPM_P2
2021/10/31 00:01:16;;;;;;;12.00;11.10;;;;;;;7.36;100.00;95202.09;5036420;28;20624;-72
2021/10/31 00:03:45;;;;;;;12.90;11.70;;;;;;;7.35;100.00;95197.81;5043230;28;20224;-72
2021/10/31 00:06:14;;;;;;;13.07;11.90;;;;;;;7.31;100.00;95201.78;5022950;28;20256;-72
2021/10/31 00:08:42;;;;;;;12.87;11.60;;;;;;;7.21;100.00;95203.00;5037700;28;20704;-72
2021/10/31 00:11:10;;;;;;;13.70;10.90;;;;;;;6.93;100.00;95208.75;5034273;28;20520;-72
2021/10/31 00:13:38;;;;;;;10.47;9.77;;;;;;;6.91;100.00;95204.66;5021705;28;20220;-72
2021/10/31 00:16:06;;;;;;;9.27;8.63;;;;;;;7.02;100.00;95199.84;5028195;28;20249;-72
2021/10/31 00:18:34;;;;;;;12.90;11.97;;;;;;;6.98;100.00;95201.19;5028322;28;20233;-72
2021/10/31 00:21:03;;;;;;;9.60;9.00;;;;;;;6.89;100.00;95201.41;5035682;28;20243;-72
2021/10/31 00:23:32;;;;;;;10.97;10.03;;;;;;;6.95;100.00;95196.28;5044644;28;20774;-71
2021/10/31 00:26:00;;;;;;;8.37;7.83;;;;;;;7.02;100.00;95191.16;5040883;28;20211;-72
2021/10/31 00:28:28;;;;;;;9.00;8.40;;;;;;;7.08;100.00;95195.72;5038767;28;20235;-71
2021/10/31 00:30:56;;;;;;;10.73;10.03;;;;;;;7.07;100.00;95194.09;5033449;28;20226;-72
2021/10/31 00:33:25;;;;;;;11.40;10.57;;;;;;;7.02;100.00;95205.09;5042826;28;20237;-72
2021/10/31 00:35:53;;;;;;;12.23;11.23;;;;;;;6.98;100.00;95211.69;5042542;28;20648;-71
2021/10/31 00:38:23;;;;;;;10.70;9.93;;;;;;;7.06;100.00;95198.53;5043113;28;20313;-70
2021/10/31 00:40:51;;;;;;;10.63;9.83;;;;;;;7.11;100.00;95190.94;5041777;28;20713;-72
2021/10/31 00:43:19;;;;;;;10.90;10.30;;;;;;;7.20;100.00;95204.00;5023573;28;20296;-72
2021/10/31 00:45:48;;;;;;;11.40;10.60;;;;;;;7.18;100.00;95200.72;5023355;28;20229;-72
2021/10/31 00:48:16;;;;;;;10.10;9.37;;;;;;;7.25;100.00;95213.00;5012978;28;20229;-72
2021/10/31 00:50:44;;;;;;;9.13;8.40;;;;;;;7.31;100.00;95203.59;5015782;28;20310;-71
2021/10/31 00:53:12;;;;;;;9.77;8.97;;;;;;;7.33;100.00;95193.75;5024423;28;20219;-71
2021/10/31 00:55:41;;;;;;;9.70;8.93;;;;;;;7.40;100.00;95194.66;5007395;28;20279;-71
2021/10/31 00:58:10;;;;;;;10.50;9.70;;;;;;;7.45;100.00;95202.84;5027734;28;20742;-72
2021/10/31 01:00:38;;;;;;;10.03;9.23;;;;;;;7.47;100.00;95189.53;5017884;28;20736;-72
2021/10/31 01:03:06;;;;;;;9.30;8.60;;;;;;;7.52;100.00;95202.97;5026716;28;20708;-71
2021/10/31 01:05:41;;;;;;;8.43;7.77;;;;;;;7.50;100.00;95195.28;5017357;28;20219;-71
2021/10/31 01:08:28;;;;;;;9.37;8.57;;;;;;;7.48;100.00;95194.59;5020131;28;20261;-71
2021/10/31 01:11:13;;;;;;;9.77;8.93;;;;;;;7.51;100.00;95186.41;5018234;28;20248;-72
2021/10/31 01:13:55;;;;;;;9.57;8.87;;;;;;;7.48;100.00;95191.16;5030756;28;20259;-71
2021/10/31 01:16:40;;;;;;;9.80;8.70;;;;;;;7.53;100.00;95192.28;5023498;28;20251;-71
2021/10/31 01:19:43;;;;;;;8.07;7.50;;;;;;;7.56;100.00;95191.91;5018531;28;20223;-71
2021/10/31 01:22:23;;;;;;;8.60;8.00;;;;;;;7.60;100.00;95190.59;5006142;28;20216;-71
2021/10/31 01:25:08;;;;;;;9.20;8.60;;;;;;;7.63;100.00;95200.72;5028788;28;20223;-72
2021/10/31 01:27:52;;;;;;;7.63;7.17;;;;;;;7.68;100.00;95198.41;5020437;28;20254;-71
2021/10/31 01:30:29;;;;;;;10.77;9.87;;;;;;;7.74;100.00;95198.66;5022687;28;20591;-71
2021/10/31 01:33:07;;;;;;;7.37;6.87;;;;;;;7.76;100.00;95208.00;5020682;28;20215;-71
2021/10/31 01:35:52;;;;;;;6.83;6.33;;;;;;;7.77;100.00;95195.69;5019459;28;20223;-72
2021/10/31 01:38:30;;;;;;;6.43;6.00;;;;;;;7.78;100.00;95192.09;5018333;28;20289;-71
2021/10/31 01:41:07;;;;;;;7.00;6.40;;;;;;;7.76;100.00;95204.56;5023744;28;20795;-71
2021/10/31 01:43:45;;;;;;;7.10;6.50;;;;;;;7.77;100.00;95200.94;5026090;28;20243;-71
2021/10/31 01:46:20;;;;;;;7.13;6.73;;;;;;;7.77;100.00;95211.44;5015000;28;20288;-71
2021/10/31 01:48:58;;;;;;;7.33;6.83;;;;;;;7.80;100.00;95221.59;5018060;28;20234;-71
2021/10/31 01:51:36;;;;;;;7.30;6.80;;;;;;;7.75;100.00;95213.44;5013119;28;20239;-72
2021/10/31 01:54:06;;;;;;;7.47;7.03;;;;;;;7.66;100.00;95221.38;5017313;28;20627;-71
2021/10/31 01:56:36;;;;;;;6.37;6.07;;;;;;;7.62;100.00;95227.97;5022328;28;20282;-71
2021/10/31 01:59:08;;;;;;;8.27;7.57;;;;;;;7.60;100.00;95231.78;5037409;28;20290;-71
2021/10/31 02:01:39;;;;;;;7.50;6.90;;;;;;;7.70;100.00;95233.19;5026713;28;20239;-71
2021/10/31 02:04:11;;;;;;;8.43;7.83;;;;;;;7.80;100.00;95232.94;5029028;28;20365;-71
2021/10/31 02:06:44;;;;;;;7.17;6.67;;;;;;;7.88;99.89;95230.22;5027129;28;20226;-71
2021/10/31 02:09:14;;;;;;;7.77;7.17;;;;;;;7.89;99.19;95237.13;5032715;28;20295;-71
2021/10/31 02:11:45;;;;;;;6.83;6.23;;;;;;;7.86;99.09;95236.63;5030574;28;20228;-71
2021/10/31 02:14:17;;;;;;;6.93;5.77;;;;;;;7.83;99.11;95242.25;5025123;28;20221;-71
2021/10/31 02:16:46;;;;;;;5.37;5.07;;;;;;;7.87;99.22;95233.03;5028929;28;20239;-71
2021/10/31 02:19:21;;;;;;;6.63;6.13;;;;;;;7.89;98.98;95204.78;5014259;28;20222;-71
2021/10/31 02:21:54;;;;;;;6.50;6.00;;;;;;;7.91;98.71;95205.41;5022003;28;20225;-71
2021/10/31 02:24:24;;;;;;;5.67;5.17;;;;;;;7.91;98.31;95205.41;5020440;28;20239;-71
2021/10/31 02:26:53;;;;;;;4.63;4.30;;;;;;;7.86;97.99;95202.50;5018974;28;20572;-71
2021/10/31 02:29:21;;;;;;;5.73;5.33;;;;;;;7.83;98.22;95194.97;5018171;28;20242;-71
2021/10/31 02:31:49;;;;;;;5.40;4.90;;;;;;;7.72;98.13;95203.28;5037566;28;20249;-71
2021/10/31 02:34:18;;;;;;;5.03;4.73;;;;;;;7.61;98.31;95200.09;5019459;28;20216;-71
2021/10/31 02:36:46;;;;;;;7.37;5.00;;;;;;;7.49;98.64;95204.09;5031952;28;20210;-71
2021/10/31 02:39:14;;;;;;;4.30;4.00;;;;;;;7.42;98.52;95205.81;5040951;28;20220;-71
2021/10/31 02:41:44;;;;;;;5.27;4.87;;;;;;;7.33;98.86;95214.75;5037522;28;20347;-71
2021/10/31 02:44:12;;;;;;;4.33;4.13;;;;;;;7.28;99.12;95201.31;5025353;28;20275;-71
2021/10/31 02:46:39;;;;;;;5.43;4.93;;;;;;;7.27;98.53;95197.06;5023539;28;20220;-71
2021/10/31 02:49:08;;;;;;;4.10;3.90;;;;;;;7.24;99.07;95194.81;5027264;28;20259;-71
2021/10/31 02:51:44;;;;;;;4.13;3.87;;;;;;;7.32;98.84;95190.31;5026614;28;20246;-70
2021/10/31 02:54:22;;;;;;;3.80;3.57;;;;;;;7.33;98.63;95199.81;5029599;28;20276;-71
2021/10/31 02:57:01;;;;;;;3.90;3.70;;;;;;;7.37;98.55;95185.34;5030173;28;20219;-72
2021/10/31 02:59:40;;;;;;;3.93;3.63;;;;;;;7.43;98.08;95181.22;5018927;28;20700;-71
2021/10/31 03:02:10;;;;;;;4.53;4.23;;;;;;;7.44;98.12;95184.66;5018488;28;20263;-71
2021/10/31 03:04:39;;;;;;;4.90;4.60;;;;;;;7.42;97.90;95192.69;5020927;28;20728;-71
2021/10/31 03:07:07;;;;;;;5.27;4.93;;;;;;;7.39;98.36;95203.53;5018212;28;20216;-71
2021/10/31 03:09:36;;;;;;;5.40;5.03;;;;;;;7.35;98.10;95202.25;5019072;28;20228;-71
2021/10/31 03:12:07;;;;;;;4.87;4.43;;;;;;;7.34;98.48;95195.38;5016216;28;20658;-71
2021/10/31 03:14:36;;;;;;;8.07;6.20;;;;;;;7.24;99.01;95197.44;5021206;28;20222;-71
2021/10/31 03:17:06;;;;;;;6.80;6.40;;;;;;;7.24;98.98;95197.44;5019846;28;20216;-70
2021/10/31 03:19:35;;;;;;;5.53;5.20;;;;;;;7.10;99.62;95189.28;5020574;28;20251;-71
2021/10/31 03:22:04;;;;;;;5.97;5.37;;;;;;;7.11;99.48;95190.94;5019866;28;20228;-72
2021/10/31 03:24:32;;;;;;;5.80;5.40;;;;;;;7.03;99.73;95184.91;5023151;28;20878;-71
2021/10/31 03:27:01;;;;;;;6.53;5.93;;;;;;;7.10;99.58;95191.91;5025049;28;20313;-71
2021/10/31 03:29:31;;;;;;;5.83;5.43;;;;;;;7.07;99.32;95189.66;5022919;28;20886;-71
2021/10/31 03:32:00;;;;;;;5.57;5.27;;;;;;;7.04;99.34;95184.75;5016466;28;20224;-71
2021/10/31 03:34:28;;;;;;;5.10;4.73;;;;;;;6.90;99.47;95185.50;5018463;28;20251;-71
2021/10/31 03:36:56;;;;;;;6.47;6.07;;;;;;;6.74;99.58;95180.31;5020234;28;20239;-71
2021/10/31 03:39:24;;;;;;;5.57;5.10;;;;;;;6.75;99.55;95171.47;5017899;28;20632;-71
2021/10/31 03:41:52;;;;;;;5.10;4.63;;;;;;;6.78;99.49;95168.53;5016289;28;20248;-71
2021/10/31 03:44:21;;;;;;;6.27;5.67;;;;;;;6.77;99.76;95177.38;5020131;28;20217;-71
2021/10/31 03:46:51;;;;;;;6.30;5.87;;;;;;;6.74;100.00;95177.69;5020626;28;20305;-71
2021/10/31 03:49:19;;;;;;;6.67;6.17;;;;;;;6.61;100.00;95187.94;5021579;28;20252;-71
2021/10/31 03:51:47;;;;;;;6.03;5.60;;;;;;;6.53;100.00;95186.97;5011526;28;20310;-71
2021/10/31 03:54:15;;;;;;;5.90;5.43;;;;;;;6.62;100.00;95189.56;5007504;28;20220;-71
2021/10/31 03:56:43;;;;;;;5.53;5.13;;;;;;;6.68;100.00;95183.66;5009702;28;20242;-71
2021/10/31 03:59:11;;;;;;;6.17;5.37;;;;;;;6.73;100.00;95187.38;5022508;28;20251;-71
2021/10/31 04:01:38;;;;;;;4.60;4.33;;;;;;;6.77;100.00;95185.25;5020445;28;20217;-70
2021/10/31 04:04:12;;;;;;;5.67;5.30;;;;;;;6.82;100.00;95185.53;5019736;28;20225;-71
2021/10/31 04:06:40;;;;;;;4.97;4.43;;;;;;;6.84;100.00;95189.59;5019461;28;20338;-70
2021/10/31 04:09:08;;;;;;;6.43;5.87;;;;;;;6.87;100.00;95175.34;5018274;28;20647;-71
2021/10/31 04:11:35;;;;;;;7.60;5.83;;;;;;;6.90;100.00;95182.88;5017200;28;20215;-71
2021/10/31 04:14:04;;;;;;;5.47;5.13;;;;;;;6.84;100.00;95188.78;5020766;28;20219;-71
2021/10/31 04:16:33;;;;;;;5.47;5.10;;;;;;;6.85;100.00;95185.19;5017751;28;20247;-71
2021/10/31 04:19:01;;;;;;;5.23;4.93;;;;;;;6.82;100.00;95175.03;5018941;28;20423;-71
2021/10/31 04:21:31;;;;;;;7.30;5.73;;;;;;;6.79;100.00;95176.22;5019752;28;20219;-71
2021/10/31 04:23:59;;;;;;;4.80;4.40;;;;;;;6.80;100.00;95171.78;5020130;28;20668;-71
2021/10/31 04:26:27;;;;;;;5.90;5.60;;;;;;;6.86;100.00;95165.84;5015548;28;20239;-71
2021/10/31 04:28:55;;;;;;;5.10;4.70;;;;;;;6.92;100.00;95175.63;5016674;28;20251;-71
2021/10/31 04:31:23;;;;;;;6.57;5.97;;;;;;;6.90;100.00;95182.88;5019727;28;20212;-71
2021/10/31 04:33:51;;;;;;;6.03;5.53;;;;;;;6.83;100.00;95181.91;5019407;28;20297;-71
2021/10/31 04:36:19;;;;;;;5.30;5.00;;;;;;;6.76;100.00;95181.78;5017617;28;20270;-71
2021/10/31 04:38:54;;;;;;;4.87;4.47;;;;;;;6.70;100.00;95187.72;5020210;28;20221;-71
2021/10/31 04:41:23;;;;;;;7.83;7.27;;;;;;;6.80;100.00;95187.50;5019681;28;20221;-71
2021/10/31 04:43:52;;;;;;;7.10;6.40;;;;;;;6.76;100.00;95180.97;5016405;28;20223;-71
2021/10/31 04:46:20;;;;;;;6.60;6.17;;;;;;;6.76;100.00;95180.97;5015839;28;20412;-71
2021/10/31 04:48:49;;;;;;;7.17;6.67;;;;;;;6.74;100.00;95173.28;5019967;28;20224;-71
2021/10/31 04:51:17;;;;;;;6.07;5.57;;;;;;;6.67;100.00;95179.38;5016522;28;20269;-71
2021/10/31 04:53:45;;;;;;;6.03;5.70;;;;;;;6.64;100.00;95179.72;5020448;28;20327;-71
2021/10/31 04:56:15;;;;;;;7.23;6.40;;;;;;;6.71;100.00;95189.38;5025902;28;20315;-71
2021/10/31 04:58:43;;;;;;;9.67;8.77;;;;;;;6.66;100.00;95188.22;5016009;28;20240;-71
2021/10/31 05:01:11;;;;;;;7.70;7.20;;;;;;;6.59;100.00;95179.44;5016691;28;20218;-70
2021/10/31 05:03:39;;;;;;;7.93;7.17;;;;;;;6.52;100.00;95174.88;5021508;28;20289;-71
2021/10/31 05:06:07;;;;;;;7.10;6.70;;;;;;;6.45;100.00;95179.16;5011003;28;20278;-71
2021/10/31 05:08:35;;;;;;;5.83;5.47;;;;;;;6.39;100.00;95168.53;5018860;28;20220;-71
2021/10/31 05:11:03;;;;;;;7.03;6.53;;;;;;;6.36;100.00;95169.69;5018298;28;20709;-71
2021/10/31 05:13:32;;;;;;;5.57;5.03;;;;;;;6.32;100.00;95167.59;5029511;28;20254;-71
2021/10/31 05:16:00;;;;;;;5.13;4.67;;;;;;;6.12;100.00;95161.91;5023268;28;20284;-71
2021/10/31 05:18:28;;;;;;;5.07;4.77;;;;;;;6.13;100.00;95163.56;5028364;28;20812;-71
2021/10/31 05:20:57;;;;;;;5.20;4.10;;;;;;;6.13;100.00;95160.94;5023410;28;20282;-71
2021/10/31 05:23:25;;;;;;;4.93;4.60;;;;;;;6.15;100.00;95162.41;5029052;28;20230;-71
2021/10/31 05:25:53;;;;;;;4.53;4.23;;;;;;;6.13;100.00;95158.31;5028504;28;20228;-70
2021/10/31 05:28:21;;;;;;;4.40;4.10;;;;;;;6.10;100.00;95158.63;5030983;28;20305;-71
2021/10/31 05:30:50;;;;;;;3.67;3.40;;;;;;;6.11;100.00;95165.50;5024907;28;20682;-71
2021/10/31 05:33:20;;;;;;;3.03;2.83;;;;;;;6.01;100.00;95159.66;5034648;28;20219;-71
2021/10/31 05:35:48;;;;;;;4.23;3.97;;;;;;;5.84;99.80;95154.41;5030339;28;20317;-70
2021/10/31 05:38:19;;;;;;;3.70;3.40;;;;;;;5.75;99.45;95155.41;5048673;28;20227;-70
2021/10/31 05:40:48;;;;;;;4.13;3.93;;;;;;;5.56;98.83;95153.97;5031900;28;20295;-71
2021/10/31 05:43:17;;;;;;;3.57;3.37;;;;;;;5.49;98.76;95154.81;5030414;28;20220;-68
2021/10/31 05:45:46;;;;;;;3.63;3.30;;;;;;;5.37;98.87;95162.97;5020869;28;20223;-68
2021/10/31 05:48:17;;;;;;;3.57;3.37;;;;;;;5.27;99.02;95154.47;5037031;28;20512;-68
2021/10/31 05:50:46;;;;;;;3.33;3.13;;;;;;;5.22;99.31;95154.16;5031616;28;20262;-68
2021/10/31 05:53:14;;;;;;;3.67;3.47;;;;;;;5.17;99.43;95145.97;5029100;28;20683;-67
2021/10/31 05:55:42;;;;;;;3.47;3.27;;;;;;;5.15;99.40;95145.31;5028527;28;20226;-68
2021/10/31 05:58:10;;;;;;;4.13;3.93;;;;;;;5.13;99.70;95152.53;5031994;28;20314;-68
2021/10/31 06:00:37;;;;;;;3.40;3.20;;;;;;;5.12;99.80;95148.25;5015386;28;20219;-68
2021/10/31 06:03:06;;;;;;;3.60;3.40;;;;;;;5.09;99.93;95148.59;5019362;28;20219;-68
2021/10/31 06:05:35;;;;;;;4.07;3.87;;;;;;;5.09;99.88;95159.03;5026736;28;20291;-68
2021/10/31 06:08:05;;;;;;;3.70;3.50;;;;;;;5.08;100.00;95144.34;5038477;28;20348;-68
2021/10/31 06:10:34;;;;;;;3.23;3.10;;;;;;;5.09;100.00;95154.63;5039882;28;20280;-68
2021/10/31 06:13:02;;;;;;;3.00;2.80;;;;;;;5.09;100.00;95149.41;5041217;28;20211;-68
2021/10/31 06:15:31;;;;;;;3.57;3.40;;;;;;;5.07;100.00;95142.72;5041242;28;20227;-68
2021/10/31 06:17:59;;;;;;;4.23;3.93;;;;;;;5.09;100.00;95135.50;5036970;28;20237;-68
2021/10/31 06:20:28;;;;;;;4.37;4.07;;;;;;;5.12;100.00;95133.41;5027646;28;20227;-68
2021/10/31 06:22:57;;;;;;;4.97;4.63;;;;;;;5.18;100.00;95134.53;5026359;28;20223;-68
2021/10/31 06:25:25;;;;;;;7.07;4.40;;;;;;;5.23;100.00;95134.06;5038830;28;20306;-68
2021/10/31 06:27:53;;;;;;;5.00;4.70;;;;;;;5.27;100.00;95141.41;5034334;28;20245;-68
2021/10/31 06:30:21;;;;;;;7.33;6.60;;;;;;;5.33;100.00;95132.91;5035366;28;20575;-68
2021/10/31 06:32:49;;;;;;;20.87;17.20;;;;;;;5.39;100.00;95134.88;5033026;28;20219;-68
2021/10/31 06:35:17;;;;;;;22.13;17.37;;;;;;;5.46;100.00;95126.34;5034113;28;20302;-68
2021/10/31 06:37:47;;;;;;;18.03;16.27;;;;;;;5.51;100.00;95134.53;5029852;28;20228;-68
2021/10/31 06:40:17;;;;;;;14.13;12.90;;;;;;;5.57;100.00;95131.22;5032865;28;20222;-68
2021/10/31 06:42:45;;;;;;;18.17;14.03;;;;;;;5.60;100.00;95141.38;5026445;28;20226;-68
2021/10/31 06:45:14;;;;;;;11.63;10.43;;;;;;;5.61;100.00;95140.41;5026811;28;20310;-68
2021/10/31 06:47:42;;;;;;;12.43;10.70;;;;;;;5.64;100.00;95143.50;5017486;28;20251;-68
2021/10/31 06:50:10;;;;;;;10.23;9.00;;;;;;;5.68;100.00;95138.75;5030540;28;20228;-69
2021/10/31 06:52:38;;;;;;;13.70;11.50;;;;;;;5.74;100.00;95143.31;5034742;28;20437;-68
2021/10/31 06:55:09;;;;;;;8.87;8.17;;;;;;;5.80;100.00;95136.59;5033612;28;20225;-68
2021/10/31 06:57:40;;;;;;;11.70;10.73;;;;;;;5.85;100.00;95142.97;5030512;28;20329;-68
2021/10/31 07:00:10;;;;;;;11.80;10.67;;;;;;;5.93;99.99;95147.38;5019982;28;20792;-68
2021/10/31 07:02:38;;;;;;;12.60;11.50;;;;;;;5.99;99.95;95139.69;5011541;28;20220;-68
2021/10/31 07:05:07;;;;;;;15.30;13.13;;;;;;;6.06;99.55;95136.41;5028776;28;20228;-68
2021/10/31 07:07:35;;;;;;;13.73;12.40;;;;;;;6.14;99.45;95133.75;5018646;28;20222;-68
2021/10/31 07:10:04;;;;;;;11.27;10.27;;;;;;;6.22;99.59;95137.16;5030150;28;20569;-68
2021/10/31 07:12:32;;;;;;;9.93;9.03;;;;;;;6.35;99.37;95135.78;5029101;28;20646;-68
2021/10/31 07:15:02;;;;;;;7.30;6.70;;;;;;;6.45;99.73;95139.03;5029506;28;20270;-68
2021/10/31 07:17:30;;;;;;;8.07;7.47;;;;;;;6.55;99.48;95145.69;5022893;28;20316;-68
2021/10/31 07:19:58;;;;;;;6.33;5.93;;;;;;;6.68;99.21;95152.19;5029825;28;20239;-68
2021/10/31 07:22:27;;;;;;;5.27;4.87;;;;;;;6.82;98.74;95154.88;5032043;28;20266;-68
2021/10/31 07:24:56;;;;;;;4.47;4.17;;;;;;;6.99;98.95;95150.34;5032150;28;20273;-68
2021/10/31 07:27:24;;;;;;;3.40;3.20;;;;;;;7.21;98.88;95146.09;5034215;28;20224;-68
2021/10/31 07:29:52;;;;;;;4.87;4.57;;;;;;;7.42;98.76;95134.94;5032439;28;20314;-68
2021/10/31 07:32:23;;;;;;;4.17;3.87;;;;;;;7.60;97.90;95132.81;5024115;28;20475;-68
2021/10/31 07:34:51;;;;;;;5.67;5.37;;;;;;;7.83;98.25;95132.75;5023405;28;20413;-68
2021/10/31 07:37:19;;;;;;;5.13;4.73;;;;;;;8.13;97.57;95136.19;5033289;28;20235;-68
2021/10/31 07:39:49;;;;;;;3.47;3.27;;;;;;;8.30;96.68;95128.13;5032482;28;20223;-68
2021/10/31 07:42:17;;;;;;;4.10;3.63;;;;;;;8.56;96.77;95117.97;5034499;28;20313;-68
2021/10/31 07:44:46;;;;;;;4.23;4.03;;;;;;;8.95;97.10;95114.13;5037802;28;20216;-68
2021/10/31 07:47:15;;;;;;;4.37;4.07;;;;;;;9.13;95.88;95114.53;5031522;28;20426;-68
2021/10/31 07:49:45;;;;;;;3.63;3.43;;;;;;;9.48;95.32;95109.38;5030124;28;20249;-68
2021/10/31 07:52:13;;;;;;;4.43;4.07;;;;;;;9.76;93.75;95104.91;5018035;28;20222;-68
2021/10/31 07:54:41;;;;;;;5.20;4.90;;;;;;;9.82;92.28;95104.16;5017919;28;20487;-68
2021/10/31 07:57:11;;;;;;;5.43;4.93;;;;;;;9.93;91.61;95111.53;5026714;28;20504;-68
2021/10/31 07:59:39;;;;;;;8.30;7.57;;;;;;;10.01;91.83;95099.19;5021297;28;20281;-68
2021/10/31 08:02:08;;;;;;;7.00;6.50;;;;;;;10.12;91.92;95096.03;5020133;28;20253;-68
2021/10/31 08:04:36;;;;;;;6.23;5.83;;;;;;;10.22;90.69;95088.59;5018298;28;20711;-68
2021/10/31 08:07:05;;;;;;;5.37;4.97;;;;;;;10.33;89.68;95074.84;5012984;28;20508;-68
2021/10/31 08:09:34;;;;;;;4.97;4.63;;;;;;;10.48;89.09;95072.06;5020489;28;20223;-68
2021/10/31 08:12:02;;;;;;;2.73;2.63;;;;;;;10.81;85.52;95077.47;5021768;28;20260;-68
2021/10/31 08:14:30;;;;;;;3.10;2.90;;;;;;;10.97;84.22;95061.25;5023150;28;20223;-69
2021/10/31 08:16:59;;;;;;;2.30;2.20;;;;;;;11.15;84.16;95057.19;5014523;28;20310;-68
2021/10/31 08:19:27;;;;;;;2.83;2.73;;;;;;;11.69;82.75;95057.78;5013024;28;20239;-68
2021/10/31 08:21:55;;;;;;;1.90;1.80;;;;;;;12.64;80.66;95052.88;5043988;28;20228;-68
2021/10/31 08:24:24;;;;;;;3.40;3.20;;;;;;;13.01;77.06;95068.97;5030120;28;20269;-68
2021/10/31 08:26:52;;;;;;;4.60;2.83;;;;;;;12.79;77.76;95060.53;5031576;28;20293;-68
2021/10/31 08:29:23;;;;;;;2.97;2.67;;;;;;;12.72;79.69;95065.88;5026820;28;20709;-69
2021/10/31 08:31:54;;;;;;;2.00;1.80;;;;;;;12.95;79.55;95060.03;5022815;28;20248;-68
2021/10/31 08:34:22;;;;;;;4.07;3.07;;;;;;;13.66;76.17;95056.28;5024139;28;20957;-69
2021/10/31 08:36:51;;;;;;;2.57;2.47;;;;;;;14.57;72.83;95052.09;5020251;28;20223;-69
2021/10/31 08:39:19;;;;;;;2.33;2.23;;;;;;;15.50;69.96;95052.41;5028980;28;20329;-69
2021/10/31 08:41:49;;;;;;;3.83;3.00;;;;;;;16.10;66.97;95046.09;5019454;28;20246;-69
2021/10/31 08:44:17;;;;;;;2.50;2.30;;;;;;;16.63;65.56;95045.84;5022695;28;20219;-69
2021/10/31 08:46:45;;;;;;;2.40;2.07;;;;;;;17.18;64.39;95052.50;5019497;28;20227;-69
2021/10/31 08:49:12;;;;;;;3.50;2.00;;;;;;;17.56;63.30;95039.31;5016637;28;20311;-68
2021/10/31 08:51:40;;;;;;;2.80;2.13;;;;;;;17.78;62.26;95038.59;5023074;28;20319;-69
2021/10/31 08:54:09;;;;;;;2.53;2.43;;;;;;;18.22;61.26;95041.38;5029450;28;20220;-69
2021/10/31 08:56:37;;;;;;;2.50;2.40;;;;;;;18.43;60.65;95033.38;5026712;28;20868;-69
2021/10/31 08:59:09;;;;;;;3.03;2.93;;;;;;;18.83;59.18;95026.91;5022494;28;20310;-69
2021/10/31 09:01:37;;;;;;;5.10;4.60;;;;;;;19.21;59.10;95017.16;5017006;28;20215;-69
2021/10/31 09:04:06;;;;;;;2.67;2.57;;;;;;;19.52;58.56;95005.66;5018220;28;20598;-69
2021/10/31 09:06:34;;;;;;;2.43;2.30;;;;;;;19.85;57.65;95001.94;5019229;28;20460;-69
2021/10/31 09:09:02;;;;;;;3.30;3.10;;;;;;;20.08;56.79;94990.00;5023044;28;20350;-69
2021/10/31 09:11:30;;;;;;;3.70;3.50;;;;;;;20.44;56.17;94982.16;5018884;28;20223;-69
2021/10/31 09:13:59;;;;;;;2.97;2.80;;;;;;;20.91;54.50;94983.91;5024126;28;20211;-69
2021/10/31 09:16:29;;;;;;;3.10;2.80;;;;;;;21.22;55.00;94974.88;5021449;28;20615;-69
2021/10/31 09:18:57;;;;;;;2.17;2.07;;;;;;;21.62;54.06;94970.59;5020391;28;20290;-69
2021/10/31 09:21:28;;;;;;;2.50;2.40;;;;;;;21.74;52.80;94968.44;5023604;28;20310;-68
2021/10/31 09:23:56;;;;;;;2.57;2.47;;;;;;;21.81;53.92;94965.47;5032162;28;20211;-69
2021/10/31 09:26:24;;;;;;;2.50;2.40;;;;;;;22.31;53.14;94961.91;5020723;28;20247;-69
2021/10/31 09:28:52;;;;;;;2.33;2.23;;;;;;;22.68;50.71;94956.09;5024983;28;20306;-69
2021/10/31 09:31:21;;;;;;;2.80;2.23;;;;;;;23.04;50.12;94952.41;5022427;28;20310;-69
2021/10/31 09:33:50;;;;;;;2.90;2.80;;;;;;;23.32;50.41;94938.22;5036360;28;20226;-69
2021/10/31 09:36:19;;;;;;;2.40;2.30;;;;;;;23.70;49.00;94938.47;5026630;28;20638;-69
2021/10/31 09:38:52;;;;;;;2.77;2.53;;;;;;;23.78;49.50;94935.97;5031565;28;20227;-69
2021/10/31 09:41:24;;;;;;;2.17;2.07;;;;;;;23.92;50.27;94922.59;5024604;28;20218;-67
2021/10/31 09:43:58;;;;;;;2.80;2.60;;;;;;;24.17;48.92;94921.53;5019817;28;20232;-69
2021/10/31 09:46:27;;;;;;;2.70;2.03;;;;;;;24.40;48.23;94919.94;5020099;28;20582;-69
2021/10/31 09:48:58;;;;;;;2.23;2.03;;;;;;;24.44;48.13;94918.28;5016779;28;20219;-69
2021/10/31 09:51:26;;;;;;;3.37;2.57;;;;;;;24.48;49.22;94916.59;5015363;28;20267;-69
2021/10/31 09:53:55;;;;;;;1.47;1.37;;;;;;;24.79;48.77;94910.81;5018574;28;20700;-69
2021/10/31 09:56:23;;;;;;;1.97;1.87;;;;;;;25.12;47.57;94907.09;5032142;28;20705;-69
2021/10/31 09:58:53;;;;;;;1.87;1.77;;;;;;;25.39;46.26;94894.78;5017500;28;20473;-69
2021/10/31 10:01:37;;;;;;;1.33;1.23;;;;;;;25.46;47.44;94887.91;5019536;28;20320;-70
2021/10/31 10:04:07;;;;;;;1.50;1.40;;;;;;;25.91;46.02;94887.41;5019468;28;20208;-69
2021/10/31 10:06:50;;;;;;;1.70;1.60;;;;;;;26.19;44.20;94880.91;5018824;28;20318;-69
2021/10/31 10:09:19;;;;;;;1.40;1.30;;;;;;;26.01;44.46;94871.78;5025150;28;20219;-69
2021/10/31 10:11:50;;;;;;;1.00;1.00;;;;;;;26.16;45.12;94872.59;5009232;28;20330;-69
2021/10/31 10:14:23;;;;;;;2.07;1.93;;;;;;;26.63;44.05;94861.34;5021217;28;20220;-69
2021/10/31 10:16:58;;;;;;;1.20;1.10;;;;;;;26.59;43.31;94854.91;5052680;28;20274;-69
2021/10/31 10:19:30;;;;;;;1.33;1.27;;;;;;;26.77;44.19;94839.63;5025379;28;20215;-69
2021/10/31 10:22:01;;;;;;;2.33;2.13;;;;;;;26.71;42.20;94832.75;5028637;28;20223;-69
2021/10/31 10:24:31;;;;;;;0.90;0.90;;;;;;;26.75;43.36;94825.63;5015179;28;20224;-70
2021/10/31 10:27:01;;;;;;;1.67;1.63;;;;;;;26.88;42.58;94830.19;5029710;28;20223;-70
2021/10/31 10:29:32;;;;;;;0.90;0.90;;;;;;;26.92;43.38;94820.34;5039951;28;20602;-69
2021/10/31 10:32:02;;;;;;;0.97;0.97;;;;;;;27.14;43.50;94821.47;5017078;28;20319;-69
2021/10/31 10:34:38;;;;;;;1.53;1.50;;;;;;;27.39;43.67;94814.63;5012414;28;20318;-70
2021/10/31 10:37:09;;;;;;;1.27;1.17;;;;;;;27.81;42.59;94815.97;5021100;28;20238;-70
2021/10/31 10:39:39;;;;;;;1.63;1.53;;;;;;;27.87;41.76;94805.75;5021337;28;20215;-69
2021/10/31 10:42:09;;;;;;;2.23;2.13;;;;;;;27.65;41.27;94804.69;5018969;28;20220;-69
2021/10/31 10:44:38;;;;;;;1.93;1.30;;;;;;;27.52;41.99;94813.72;5016596;28;20578;-69
2021/10/31 10:47:08;;;;;;;0.80;0.80;;;;;;;27.71;41.15;94800.00;5019436;28;20212;-69
2021/10/31 10:49:39;;;;;;;1.03;1.03;;;;;;;27.58;41.44;94798.13;5023636;28;20255;-69
2021/10/31 10:52:20;;;;;;;2.47;1.03;;;;;;;27.23;40.56;94792.53;5017792;28;20594;-69
2021/10/31 10:54:52;;;;;;;2.93;1.93;;;;;;;27.05;41.56;94785.41;5017391;28;20762;-69
2021/10/31 10:57:21;;;;;;;2.37;2.27;;;;;;;27.00;42.03;94780.09;5017657;28;20324;-70
2021/10/31 10:59:55;;;;;;;1.83;1.73;;;;;;;27.01;42.58;94773.56;5017910;28;20231;-69
2021/10/31 11:02:24;;;;;;;4.97;2.30;;;;;;;27.06;40.52;94770.75;5011812;28;20223;-69
2021/10/31 11:04:56;;;;;;;2.73;2.53;;;;;;;27.29;39.87;94764.19;5005446;28;20246;-70
2021/10/31 11:07:34;;;;;;;2.25;1.88;;;;;;;27.05;39.70;94753.69;5006557;28;20231;-69
2021/10/31 11:10:08;;;;;;;1.73;1.55;;;;;;;26.94;40.93;94753.13;5006836;28;20219;-69
2021/10/31 11:12:37;;;;;;;7.13;3.50;;;;;;;26.43;40.27;94747.38;5016957;28;20246;-69
2021/10/31 11:15:08;;;;;;;5.00;1.10;;;;;;;26.25;41.14;94747.19;5003765;28;20438;-69
2021/10/31 11:17:37;;;;;;;1.93;1.30;;;;;;;25.63;41.14;94752.25;5006782;28;20772;-69
2021/10/31 11:20:09;;;;;;;2.10;1.53;;;;;;;24.84;42.37;94746.09;5007294;28;20488;-69
2021/10/31 11:22:37;;;;;;;1.10;1.10;;;;;;;24.31;44.25;94732.88;5017601;28;20223;-69
2021/10/31 11:25:08;;;;;;;1.30;1.00;;;;;;;23.83;46.15;94722.22;5016401;28;20350;-69
2021/10/31 11:27:37;;;;;;;1.13;1.03;;;;;;;23.47;45.90;94719.94;5023582;28;20255;-69
2021/10/31 11:30:07;;;;;;;1.23;1.03;;;;;;;22.96;47.90;94717.81;5024258;28;20235;-69
2021/10/31 11:32:36;;;;;;;1.60;1.50;;;;;;;22.70;48.21;94706.47;5021108;28;20757;-68
2021/10/31 11:35:08;;;;;;;1.33;1.23;;;;;;;22.18;50.15;94699.09;5031009;28;20223;-69
2021/10/31 11:37:41;;;;;;;1.10;1.10;;;;;;;22.19;49.10;94700.69;5028101;28;20298;-69
2021/10/31 11:40:11;;;;;;;1.10;1.00;;;;;;;22.10;50.05;94697.81;5029694;28;20688;-69
2021/10/31 11:42:42;;;;;;;1.67;1.57;;;;;;;22.22;49.89;94688.56;5026076;28;20246;-69
2021/10/31 11:45:17;;;;;;;0.97;0.87;;;;;;;22.59;49.32;94688.03;5026119;28;20690;-69
2021/10/31 11:47:47;;;;;;;0.97;0.97;;;;;;;22.86;48.77;94666.81;5026369;28;20304;-69